Hauptseite
METAR-TAF:

METAR-TAF

Flughäfen :

Paderborn-Lippstadt, Deutschland

Flughafen Paderborn/Lippstadt

Breite: 51-37N, Länge: 008-37E, Höhe: 213 m

Beobachtung

Neuester Wetterbericht von vor 21 Minuten, um 01:20 UTC
Wind 11 kt aus Ost
Temperatur -6°C
Luftfeuchtigkeit 62%
Luftdruck 1028 hPa
Sichtweite 10 km oder mehr
keine Wolken unter 1500 m und keine Kumulonimbus oder Gewitterwolken

METAR: EDLP 250120Z 10011KT CAVOK M06/M12 Q1028

Zeit: 02:41 (01:41 UTC)

Prognose

Neuester Wetterbericht von vor 2 Stunden und 41 Minuten, um 23:00 UTC
Gültige Prognose vom 25 um 00 UTC bis 25 um 24 UTC
Wind 10 kt aus Ost
Sichtweite 10 km oder mehr
keine Wolken unter 1500 m und keine Kumulonimbus oder Gewitterwolken
Übergehend zu
vom 25 um 16 UTC bis 25 um 19 UTC
Wind 5 kt aus Ost

TAF: EDLP 242300Z 2500/2524 09010KT CAVOK BECMG 2516/2519 08005KT

Wetterbeobachtungen und Prognosen von mehr als 4000 Flughäfen (METAR und TAF Bericht).

Die verfügbaren Stationen werden durch gelbe und rote Markierungen auf der Karte dargestellt.

Führen Sie die Maus auf sie, um den Namen der Station zu sehen.

Darauf klicken, um die Beobachtung von Wetterbeobachtungen und Prognosen zu sehen.

Um die Karte zu ändern : klicken Sie auf den grünen Tasten mit einem schwarzen Kreuz Zum Vergrößern, auf den grünen Button mit einem Gedankenstrich zu verkleinern, oder auf die grünen Pfeile für benachbarte Karten.


METAR-TAF: